Airfield :
LOGIN :

Register | Disclaimer

   EN    FR    IT 

 










Legend :    VFR   Marginal VFR   IFR   Intensive IFR   Very Intensive IFR
Visi :
Ceiling :
>= 8 km
>= 3000ft
5 to 8 km
1000 to 3000 ft
1500m to 5 km
500 to 1000 ft
800 to 1500m
200 to 500 ft
< 800m
< 200 ft
Symbols :   Thunderstorms  Fog  Heavy snow  Heavy precipitations  Wind > 20 kt
SIGMETs :     Misc.  Thunderstorms  Icing  Turbulence  Mountain Waves  Volcanic Ashes







- Airport Elevation : -15 ft
- IATA code : RTM


EHRD - Rotterdam Zestienhoven

CURRENT METAR :
  • 210255Z AUTO 07005KT 9999 NSC 10/08 Q1018 NOSIG

EXPIRED METARs :
  • 210225Z AUTO 06007KT 9999 NCD 10/09 Q1018 NOSIG
  • 210155Z AUTO 06004KT 9999 NCD 11/09 Q1018 NOSIG
  • 210125Z AUTO 04003KT 9999 NCD 11/10 Q1018 BECMG 8000 NSW
  • 210055Z AUTO VRB02KT 5000 BR NCD 11/11 Q1018 BECMG 8000 NSW
  • 210025Z AUTO 03001KT 5000 BR NCD 11/11 Q1018 BECMG 5000

TAF TAF EHRD
Valid from the 21 at 00:00 until the 22 at 06:00 UTC


202258Z 2100/2206 07007KT CAVOK
BECMG 2109/2112 08013KT
PROB30
TEMPO 2115/2124 7000 -SHRA FEW045CB
BECMG 2118/2121 VRB03KT
No reported NOTAMs for that airfield.



MET'MAP, your aeronautical weather chart ! - Copyright ORBIFLY December 2007 - Disclaimer

ORBIFLY MET'MAP TEAM :

Programming & Development : Alexandra Zaïnal
Concept & Development : Baudouin d'Aumeries
Co-Development & Prog : Marc-Olivier Méhu
Technical & hardware support : Manuel Goepfert

Contact : metmap@orbifly.com




SOURCES & CREDITS :

   NOAA